createdAt,value
2019-03-19T00:01:41.348Z,79.16
2019-03-19T00:04:10.269Z,79.12
2019-03-19T00:06:38.947Z,79.26
2019-03-19T00:09:08.315Z,79.27
2019-03-19T00:11:36.977Z,79.39
2019-03-19T00:14:06.004Z,79.51
2019-03-19T00:16:34.995Z,79.63
2019-03-19T00:19:04.115Z,79.39
2019-03-19T00:21:32.861Z,79.80
2019-03-19T00:24:01.795Z,79.60
2019-03-19T00:26:30.823Z,79.34
2019-03-19T00:28:59.509Z,79.67
2019-03-19T00:31:28.459Z,79.62
2019-03-19T00:33:57.179Z,80.02
2019-03-19T00:36:25.875Z,80.07
2019-03-19T00:38:54.596Z,80.21
2019-03-19T00:41:23.369Z,80.35
2019-03-19T00:43:54.498Z,80.42
2019-03-19T00:46:23.463Z,80.18
2019-03-19T00:48:52.455Z,80.17
2019-03-19T00:51:22.019Z,79.74
2019-03-19T00:53:51.011Z,79.63
2019-03-19T00:56:20.416Z,79.79
2019-03-19T00:58:49.457Z,80.03
2019-03-19T01:01:18.714Z,79.62
2019-03-19T01:03:47.421Z,80.17
2019-03-19T01:06:16.401Z,80.24
2019-03-19T01:08:45.385Z,80.85
2019-03-19T01:11:14.543Z,80.62
2019-03-19T01:13:43.224Z,80.62
2019-03-19T01:16:12.250Z,81.04
2019-03-19T01:18:41.241Z,81.01
2019-03-19T01:21:10.293Z,80.95
2019-03-19T01:23:39.009Z,80.95
2019-03-19T01:26:07.702Z,80.85
2019-03-19T01:28:36.645Z,80.85
2019-03-19T01:31:05.439Z,80.92
2019-03-19T01:33:34.430Z,80.97
2019-03-19T01:36:03.385Z,80.94
2019-03-19T01:38:32.064Z,81.02
2019-03-19T01:41:00.749Z,80.76
2019-03-19T01:43:29.443Z,81.33
2019-03-19T01:45:58.575Z,81.17
2019-03-19T01:48:27.266Z,81.02
2019-03-19T01:50:56.251Z,81.33
2019-03-19T01:53:24.977Z,81.53
2019-03-19T01:56:04.432Z,81.73
2019-03-19T01:58:24.088Z,81.78
2019-03-19T02:00:53.042Z,81.80
2019-03-19T02:03:21.729Z,82.07
2019-03-19T02:05:51.025Z,82.02
2019-03-19T02:08:19.715Z,82.03
2019-03-19T02:10:48.401Z,82.06
2019-03-19T02:13:17.090Z,81.93
2019-03-19T02:15:45.827Z,81.87
2019-03-19T02:18:14.760Z,81.86
2019-03-19T02:20:43.449Z,82.07
2019-03-19T02:23:12.154Z,82.29
2019-03-19T02:25:40.852Z,82.62
2019-03-19T02:28:09.818Z,82.46
2019-03-19T02:30:38.827Z,82.63
2019-03-19T02:33:07.496Z,82.61
2019-03-19T02:35:36.162Z,82.57
2019-03-19T02:38:04.909Z,82.95
2019-03-19T02:40:33.628Z,82.87
2019-03-19T02:43:02.287Z,82.79
2019-03-19T02:45:30.962Z,82.70
2019-03-19T02:48:00.011Z,83.02
2019-03-19T02:50:29.114Z,82.94
2019-03-19T02:52:57.793Z,82.77
2019-03-19T02:55:27.086Z,82.66
2019-03-19T02:57:55.761Z,82.86
2019-03-19T03:00:24.466Z,82.74
2019-03-19T03:02:53.151Z,82.99
2019-03-19T03:05:22.353Z,82.98
2019-03-19T03:07:51.024Z,83.15
2019-03-19T03:10:19.690Z,83.23
2019-03-19T03:12:48.704Z,82.85
2019-03-19T03:15:17.776Z,83.09
2019-03-19T03:17:46.431Z,82.65
2019-03-19T03:20:15.326Z,82.12
2019-03-19T03:22:44.164Z,81.94
2019-03-19T03:25:13.039Z,82.25
2019-03-19T03:27:41.760Z,82.54
2019-03-19T03:30:11.755Z,82.68
2019-03-19T03:32:40.450Z,82.99
2019-03-19T03:35:10.074Z,83.13
2019-03-19T03:37:39.061Z,83.33
2019-03-19T03:40:09.335Z,83.53
2019-03-19T03:42:38.084Z,83.54
2019-03-19T03:45:07.408Z,83.25
2019-03-19T03:47:36.453Z,83.25
2019-03-19T03:50:05.710Z,82.89
2019-03-19T03:52:34.367Z,82.76
2019-03-19T03:55:03.756Z,82.91
2019-03-19T03:57:32.734Z,83.18
2019-03-19T04:00:01.956Z,83.15
2019-03-19T04:02:30.716Z,83.40
2019-03-19T04:04:59.402Z,83.38
2019-03-19T04:07:28.088Z,83.56
2019-03-19T04:09:57.274Z,83.70
2019-03-19T04:12:25.952Z,83.68
2019-03-19T04:14:54.637Z,83.97
2019-03-19T04:17:23.568Z,83.84
2019-03-19T04:19:53.025Z,83.69
2019-03-19T04:22:24.346Z,83.78
2019-03-19T04:24:53.597Z,83.73
2019-03-19T04:27:22.341Z,84.03
2019-03-19T04:29:51.020Z,83.78
2019-03-19T04:32:20.270Z,83.71
2019-03-19T04:34:48.939Z,83.85
2019-03-19T04:37:17.636Z,83.96
2019-03-19T04:39:49.397Z,83.63
2019-03-19T04:42:18.085Z,83.96
2019-03-19T04:44:46.772Z,84.30
2019-03-19T04:47:15.758Z,84.06
2019-03-19T04:49:44.455Z,84.35
2019-03-19T04:52:13.485Z,84.50
2019-03-19T04:54:42.423Z,84.00
2019-03-19T04:57:11.116Z,84.27
2019-03-19T04:59:39.793Z,84.08
2019-03-19T05:02:08.498Z,84.09
2019-03-19T05:04:37.810Z,84.27
2019-03-19T05:07:06.487Z,84.42
2019-03-19T05:09:36.016Z,84.49
2019-03-19T05:12:04.692Z,84.65
2019-03-19T05:14:33.370Z,84.59
2019-03-19T05:17:02.344Z,84.25
2019-03-19T05:19:31.031Z,84.43
2019-03-19T05:22:00.024Z,84.66
2019-03-19T05:24:28.824Z,84.54
2019-03-19T05:26:57.517Z,84.41
2019-03-19T05:29:26.479Z,84.74
2019-03-19T05:31:55.788Z,84.98
2019-03-19T05:34:24.460Z,85.24
2019-03-19T05:36:53.462Z,85.29
2019-03-19T05:39:22.663Z,85.16
2019-03-19T05:41:51.370Z,85.30
2019-03-19T05:44:20.352Z,85.23
2019-03-19T05:46:49.334Z,85.11
2019-03-19T05:49:18.632Z,85.26
2019-03-19T05:51:47.631Z,85.25
2019-03-19T05:54:16.312Z,85.33
2019-03-19T05:56:45.022Z,85.33
2019-03-19T05:59:14.296Z,85.35
2019-03-19T06:01:43.255Z,85.36
2019-03-19T06:04:11.953Z,85.45
2019-03-19T06:06:40.660Z,85.41
2019-03-19T06:09:09.564Z,85.34
2019-03-19T06:11:38.514Z,85.25
2019-03-19T06:14:07.432Z,85.24
2019-03-19T06:16:36.112Z,85.12
2019-03-19T06:19:04.797Z,85.08
2019-03-19T06:21:33.793Z,85.01
2019-03-19T06:24:02.462Z,84.88
2019-03-19T06:26:31.643Z,84.64
2019-03-19T06:29:00.331Z,84.46
2019-03-19T06:31:29.036Z,84.33
2019-03-19T06:33:57.947Z,83.95
2019-03-19T06:36:26.613Z,83.54
2019-03-19T06:38:55.627Z,83.87
2019-03-19T06:41:24.471Z,83.97
2019-03-19T06:43:53.498Z,83.67
2019-03-19T06:46:22.497Z,83.67
2019-03-19T06:48:51.497Z,83.77
2019-03-19T06:51:20.243Z,83.90
2019-03-19T06:53:49.044Z,83.42
2019-03-19T06:56:17.744Z,83.52
2019-03-19T06:58:46.422Z,83.37
2019-03-19T07:01:17.388Z,83.37
2019-03-19T07:03:46.166Z,83.13
2019-03-19T07:06:15.100Z,83.30
2019-03-19T07:08:43.789Z,83.24
2019-03-19T07:11:12.840Z,83.27
2019-03-19T07:13:41.844Z,83.12
2019-03-19T07:16:10.823Z,83.40
2019-03-19T07:18:41.920Z,83.31
2019-03-19T07:21:10.889Z,83.45
2019-03-19T07:23:41.670Z,83.35
2019-03-19T07:26:10.355Z,83.12
2019-03-19T07:28:39.049Z,82.76
2019-03-19T07:31:07.747Z,82.86
2019-03-19T07:33:36.675Z,83.04
2019-03-19T07:36:06.390Z,83.21
2019-03-19T07:38:35.456Z,82.87
2019-03-19T07:41:04.438Z,82.86
2019-03-19T07:43:33.150Z,83.02
2019-03-19T07:46:01.835Z,83.27
2019-03-19T07:48:30.517Z,83.18
2019-03-19T07:50:59.895Z,83.09
2019-03-19T07:53:28.841Z,82.97
2019-03-19T07:55:57.880Z,83.14
2019-03-19T07:58:35.848Z,82.87
2019-03-19T08:00:57.292Z,82.68
2019-03-19T08:03:26.322Z,82.88
2019-03-19T08:05:55.284Z,82.40
2019-03-19T08:08:23.977Z,82.69
2019-03-19T08:10:52.638Z,82.94
2019-03-19T08:13:21.430Z,82.78
2019-03-19T08:15:50.097Z,82.63
2019-03-19T08:18:19.081Z,82.33
2019-03-19T08:20:48.323Z,82.43
2019-03-19T08:23:17.019Z,82.56
2019-03-19T08:25:45.947Z,82.28
2019-03-19T08:28:14.634Z,81.27
2019-03-19T08:30:43.353Z,82.06
2019-03-19T08:33:13.386Z,81.04
2019-03-19T08:35:42.382Z,81.03
2019-03-19T08:38:11.340Z,81.31
2019-03-19T08:40:40.364Z,81.09
2019-03-19T08:43:09.040Z,81.30
2019-03-19T08:45:37.709Z,80.61
2019-03-19T08:48:06.727Z,81.29
2019-03-19T08:50:35.436Z,81.47
2019-03-19T08:53:04.916Z,81.15
2019-03-19T08:55:34.040Z,80.57
2019-03-19T08:58:02.725Z,80.73
2019-03-19T09:00:31.789Z,80.52
2019-03-19T09:03:00.735Z,79.78
2019-03-19T09:05:29.427Z,79.23
2019-03-19T09:07:58.351Z,79.68
2019-03-19T09:10:27.354Z,79.31
2019-03-19T09:12:56.332Z,78.65
2019-03-19T09:15:25.341Z,78.85
2019-03-19T09:17:54.264Z,79.19
2019-03-19T09:20:23.084Z,79.37
2019-03-19T09:22:52.057Z,79.02
2019-03-19T09:25:21.105Z,79.39
2019-03-19T09:27:49.850Z,79.73
2019-03-19T09:30:18.887Z,78.94
2019-03-19T09:32:47.664Z,78.70
2019-03-19T09:35:16.429Z,79.60
2019-03-19T09:37:57.190Z,78.14
2019-03-19T09:40:15.750Z,78.69
2019-03-19T09:42:44.877Z,78.59
2019-03-19T09:45:14.505Z,79.71
2019-03-19T09:47:43.288Z,78.97
2019-03-19T09:50:13.482Z,77.17
2019-03-19T09:52:42.588Z,76.73
2019-03-19T09:55:11.663Z,76.19
2019-03-19T09:57:40.679Z,75.70
2019-03-19T10:00:15.403Z,74.92
2019-03-19T10:02:44.162Z,74.46
2019-03-19T10:05:13.190Z,73.43
2019-03-19T10:07:43.306Z,72.33
2019-03-19T10:10:13.759Z,72.75
2019-03-19T10:12:42.709Z,72.79
2019-03-19T10:15:11.555Z,72.59
2019-03-19T10:17:40.230Z,70.22
2019-03-19T10:20:11.368Z,70.64
2019-03-19T10:22:40.337Z,71.29
2019-03-19T10:25:10.120Z,69.48
2019-03-19T10:27:39.165Z,67.26
2019-03-19T10:30:12.227Z,67.95
2019-03-19T10:32:40.988Z,67.83
2019-03-19T10:35:10.343Z,65.73
2019-03-19T10:37:39.408Z,66.74
2019-03-19T10:40:08.163Z,65.94
2019-03-19T10:42:36.880Z,64.41
2019-03-19T10:45:06.094Z,66.42
2019-03-19T10:47:35.065Z,63.69
2019-03-19T10:50:04.632Z,63.43
2019-03-19T10:52:35.201Z,62.81
2019-03-19T10:55:04.354Z,64.02
2019-03-19T10:57:33.032Z,63.80
2019-03-19T11:00:16.360Z,64.92
2019-03-19T11:02:47.997Z,64.57
2019-03-19T11:05:16.906Z,61.73
2019-03-19T11:07:46.054Z,60.61
2019-03-19T11:10:15.262Z,60.87
2019-03-19T11:12:44.097Z,61.42
2019-03-19T11:15:14.823Z,59.44
2019-03-19T11:17:43.828Z,60.54
2019-03-19T11:20:14.642Z,62.91
2019-03-19T11:22:43.487Z,62.29
2019-03-19T11:25:13.542Z,62.89
2019-03-19T11:27:43.019Z,62.38
2019-03-19T11:30:15.048Z,59.60
2019-03-19T11:32:42.895Z,60.36
2019-03-19T11:35:11.762Z,60.41
2019-03-19T11:37:40.436Z,60.59
2019-03-19T11:40:09.445Z,59.46
2019-03-19T11:42:38.148Z,60.13
2019-03-19T11:45:08.029Z,61.25
2019-03-19T11:47:36.702Z,59.39
2019-03-19T11:50:07.874Z,59.88
2019-03-19T11:52:36.835Z,60.87
2019-03-19T11:55:06.651Z,59.19
2019-03-19T11:57:35.642Z,58.76
2019-03-19T12:00:13.258Z,56.05
2019-03-19T12:02:42.231Z,56.88
2019-03-19T12:05:11.325Z,56.18
2019-03-19T12:07:40.075Z,56.93
2019-03-19T12:10:09.208Z,58.43
2019-03-19T12:12:38.200Z,57.62
2019-03-19T12:15:07.432Z,58.94
2019-03-19T12:17:36.437Z,58.57
2019-03-19T12:20:05.881Z,58.92
2019-03-19T12:22:34.561Z,58.95
2019-03-19T12:25:03.601Z,61.24
2019-03-19T12:27:32.547Z,60.20
2019-03-19T12:30:01.256Z,60.48
2019-03-19T12:32:29.924Z,61.58
2019-03-19T12:35:01.531Z,61.93
2019-03-19T12:37:30.068Z,60.53
2019-03-19T12:39:58.756Z,61.25
2019-03-19T12:42:27.438Z,59.47
2019-03-19T12:44:56.172Z,59.03
2019-03-19T12:47:25.117Z,56.60
2019-03-19T12:49:54.071Z,54.46
2019-03-19T12:52:23.111Z,55.64
2019-03-19T12:54:51.829Z,55.67
2019-03-19T12:57:20.784Z,56.10
2019-03-19T12:59:49.477Z,57.69
2019-03-19T13:02:20.640Z,56.35
2019-03-19T13:04:49.647Z,56.60
2019-03-19T13:07:18.328Z,56.69
2019-03-19T13:09:47.589Z,57.87
2019-03-19T13:12:16.364Z,57.11
2019-03-19T13:14:45.052Z,53.49
2019-03-19T13:17:14.167Z,53.77
2019-03-19T13:19:43.084Z,53.93
2019-03-19T13:22:12.651Z,54.82
2019-03-19T13:24:41.656Z,54.35
2019-03-19T13:27:10.339Z,54.20
2019-03-19T13:29:39.035Z,54.13
2019-03-19T13:32:07.740Z,55.46
2019-03-19T13:34:36.419Z,57.29
2019-03-19T13:37:05.130Z,57.26
2019-03-19T13:39:33.815Z,55.83
2019-03-19T13:42:03.435Z,54.70
2019-03-19T13:44:32.368Z,55.59
2019-03-19T13:47:01.060Z,55.73
2019-03-19T13:49:30.042Z,55.45
2019-03-19T13:51:58.742Z,54.70
2019-03-19T13:54:27.664Z,53.68
2019-03-19T13:56:56.428Z,53.29
2019-03-19T13:59:25.402Z,53.67
2019-03-19T14:01:54.208Z,51.67
2019-03-19T14:04:22.895Z,53.34
2019-03-19T14:06:52.179Z,53.66
2019-03-19T14:09:20.866Z,54.30
2019-03-19T14:11:49.805Z,53.56
2019-03-19T14:14:18.496Z,53.94
2019-03-19T14:16:47.509Z,53.73
2019-03-19T14:19:16.218Z,52.12
2019-03-19T14:21:44.931Z,52.91
2019-03-19T14:24:13.898Z,52.21
2019-03-19T14:26:42.886Z,51.20
2019-03-19T14:29:11.929Z,52.02
2019-03-19T14:31:40.625Z,52.76
2019-03-19T14:34:10.173Z,53.45
2019-03-19T14:36:38.858Z,51.14
2019-03-19T14:39:08.853Z,51.23
2019-03-19T14:41:37.547Z,51.56
2019-03-19T14:44:06.298Z,48.70
2019-03-19T14:46:34.988Z,49.83
2019-03-19T14:49:03.733Z,49.56
2019-03-19T14:51:32.438Z,50.02
2019-03-19T14:54:01.120Z,50.56
2019-03-19T14:56:29.959Z,51.14
2019-03-19T14:58:58.909Z,51.84
2019-03-19T15:01:27.944Z,50.37
2019-03-19T15:03:56.643Z,51.44
2019-03-19T15:06:25.626Z,52.13
2019-03-19T15:08:54.312Z,52.03
2019-03-19T15:11:23.365Z,51.92
2019-03-19T15:13:55.106Z,52.56
2019-03-19T15:16:23.073Z,51.13
2019-03-19T15:18:52.085Z,52.25
2019-03-19T15:21:21.038Z,52.39
2019-03-19T15:23:49.723Z,50.04
2019-03-19T15:26:18.713Z,51.22
2019-03-19T15:28:47.389Z,50.31
2019-03-19T15:31:16.060Z,48.97
2019-03-19T15:33:44.727Z,48.86
2019-03-19T15:36:13.395Z,48.53
2019-03-19T15:38:42.918Z,49.18
2019-03-19T15:41:11.635Z,50.58
2019-03-19T15:43:40.317Z,51.38
2019-03-19T15:46:09.024Z,49.42
2019-03-19T15:48:38.320Z,50.80
2019-03-19T15:51:07.075Z,50.05
2019-03-19T15:53:35.755Z,46.54
2019-03-19T15:56:04.454Z,47.12
2019-03-19T15:58:33.456Z,46.71
2019-03-19T16:01:02.137Z,46.72
2019-03-19T16:03:31.147Z,45.15
2019-03-19T16:06:00.149Z,46.11
2019-03-19T16:08:29.140Z,45.27
2019-03-19T16:10:59.821Z,46.86
2019-03-19T16:13:28.556Z,44.70
2019-03-19T16:15:57.252Z,43.94
2019-03-19T16:18:26.179Z,45.25
2019-03-19T16:20:55.231Z,46.70
2019-03-19T16:23:23.923Z,45.53
2019-03-19T16:25:52.913Z,46.87
2019-03-19T16:28:21.898Z,45.39
2019-03-19T16:30:50.582Z,45.52
2019-03-19T16:33:19.578Z,45.69
2019-03-19T16:36:03.614Z,44.74
2019-03-19T16:38:33.665Z,45.66
2019-03-19T16:41:02.542Z,44.96
2019-03-19T16:43:31.927Z,46.71
2019-03-19T16:46:00.849Z,47.56
2019-03-19T16:48:29.814Z,47.18
2019-03-19T16:50:58.478Z,47.82
2019-03-19T16:53:27.164Z,49.43
2019-03-19T16:55:56.089Z,50.06
2019-03-19T16:58:25.060Z,50.46
2019-03-19T17:00:53.735Z,50.59
2019-03-19T17:03:22.428Z,51.23
2019-03-19T17:05:51.512Z,51.81
2019-03-19T17:08:20.198Z,52.52
2019-03-19T17:10:49.415Z,52.12
2019-03-19T17:13:18.105Z,53.17
2019-03-19T17:15:47.091Z,53.59
2019-03-19T17:18:16.160Z,52.42
2019-03-19T17:20:45.070Z,52.06
2019-03-19T17:23:13.793Z,52.48
2019-03-19T17:25:42.512Z,53.22
2019-03-19T17:28:21.895Z,55.16
2019-03-19T17:30:42.019Z,56.25
2019-03-19T17:33:11.295Z,56.91
2019-03-19T17:35:40.563Z,57.54
2019-03-19T17:38:09.234Z,59.06
2019-03-19T17:40:41.618Z,58.33
2019-03-19T17:43:08.763Z,57.40
2019-03-19T17:45:39.556Z,58.97
2019-03-19T17:48:16.432Z,58.41
2019-03-19T17:50:43.948Z,56.39
2019-03-19T17:53:12.669Z,55.67
2019-03-19T17:55:41.714Z,55.94
2019-03-19T17:58:10.472Z,58.16
2019-03-19T18:00:40.741Z,60.38
2019-03-19T18:03:09.525Z,60.51
2019-03-19T18:05:38.232Z,60.92
2019-03-19T18:08:07.596Z,61.57
2019-03-19T18:10:36.360Z,62.48
2019-03-19T18:13:06.757Z,62.36
2019-03-19T18:15:35.642Z,62.72
2019-03-19T18:18:04.533Z,61.37
2019-03-19T18:20:33.491Z,62.75
2019-03-19T18:23:02.419Z,61.85
2019-03-19T18:25:31.135Z,63.10
2019-03-19T18:28:00.093Z,59.86
2019-03-19T18:30:28.795Z,59.64
2019-03-19T18:32:59.220Z,59.53
2019-03-19T18:35:28.178Z,61.38
2019-03-19T18:37:57.150Z,62.07
2019-03-19T18:40:25.868Z,61.46
2019-03-19T18:42:54.858Z,62.62
2019-03-19T18:45:23.589Z,63.41
2019-03-19T18:47:52.251Z,63.81
2019-03-19T18:50:21.029Z,64.04
2019-03-19T18:52:49.780Z,64.47
2019-03-19T18:55:18.725Z,64.51
2019-03-19T18:57:47.819Z,64.47
2019-03-19T19:00:16.894Z,64.34
2019-03-19T19:02:50.277Z,64.46
2019-03-19T19:05:16.186Z,64.78
2019-03-19T19:07:45.237Z,62.93
2019-03-19T19:10:14.095Z,61.58
2019-03-19T19:12:43.291Z,61.41
2019-03-19T19:15:13.627Z,61.56
2019-03-19T19:17:42.417Z,62.60
2019-03-19T19:20:11.764Z,62.87
2019-03-19T19:22:40.586Z,62.78
2019-03-19T19:25:11.516Z,63.10
2019-03-19T19:27:40.493Z,62.01
2019-03-19T19:30:12.584Z,61.81
2019-03-19T19:32:40.450Z,62.24
2019-03-19T19:35:09.350Z,62.25
2019-03-19T19:37:38.060Z,62.42
2019-03-19T19:40:08.456Z,63.25
2019-03-19T19:42:37.409Z,62.84
2019-03-19T19:45:07.147Z,62.99
2019-03-19T19:47:36.058Z,62.61
2019-03-19T19:50:05.816Z,62.47
2019-03-19T19:52:34.760Z,61.43
2019-03-19T19:55:03.798Z,61.24
2019-03-19T19:57:32.575Z,61.90
2019-03-19T20:00:02.082Z,62.48
2019-03-19T20:02:31.141Z,62.51
2019-03-19T20:05:03.167Z,61.30
2019-03-19T20:07:30.239Z,62.72
2019-03-19T20:09:59.450Z,63.33
2019-03-19T20:12:28.239Z,61.89
2019-03-19T20:14:57.240Z,61.76
2019-03-19T20:17:27.140Z,61.38
2019-03-19T20:19:55.946Z,61.76
2019-03-19T20:22:24.957Z,61.94
2019-03-19T20:24:53.672Z,61.66
2019-03-19T20:27:22.364Z,61.93
2019-03-19T20:29:51.080Z,62.56
2019-03-19T20:32:19.850Z,62.79
2019-03-19T20:34:48.801Z,62.03
2019-03-19T20:37:17.739Z,62.16
2019-03-19T20:39:46.449Z,61.69
2019-03-19T20:42:15.409Z,61.69
2019-03-19T20:44:44.128Z,63.15
2019-03-19T20:47:12.803Z,64.07
2019-03-19T20:49:47.914Z,64.47
2019-03-19T20:52:14.453Z,64.93
2019-03-19T20:54:43.430Z,65.04
2019-03-19T20:57:12.127Z,63.51
2019-03-19T20:59:40.824Z,63.99
2019-03-19T21:02:09.518Z,64.05
2019-03-19T21:04:38.469Z,64.14
2019-03-19T21:07:07.426Z,64.04
2019-03-19T21:09:36.108Z,63.25
2019-03-19T21:12:05.124Z,62.76
2019-03-19T21:14:33.800Z,62.60
2019-03-19T21:17:02.483Z,62.04
2019-03-19T21:19:31.477Z,61.84
2019-03-19T21:22:00.723Z,62.14
2019-03-19T21:24:29.780Z,62.10
2019-03-19T21:26:58.750Z,61.82
2019-03-19T21:29:27.801Z,61.42
2019-03-19T21:31:56.793Z,61.43
2019-03-19T21:34:27.371Z,61.70
2019-03-19T21:36:56.462Z,62.36
2019-03-19T21:39:25.648Z,63.35
2019-03-19T21:41:54.851Z,64.22
2019-03-19T21:44:35.691Z,64.94
2019-03-19T21:47:05.797Z,64.96
2019-03-19T21:49:35.101Z,65.47
2019-03-19T21:52:04.308Z,65.66
2019-03-19T21:54:33.065Z,65.61
2019-03-19T21:57:01.916Z,66.11
2019-03-19T21:59:30.721Z,66.78
2019-03-19T22:02:00.020Z,66.76
2019-03-19T22:04:31.199Z,66.88
2019-03-19T22:07:00.032Z,66.53
2019-03-19T22:09:29.017Z,67.31
2019-03-19T22:11:59.534Z,67.22
2019-03-19T22:14:28.333Z,67.43
2019-03-19T22:16:57.069Z,68.03
2019-03-19T22:19:25.754Z,68.17
2019-03-19T22:21:54.538Z,68.44
2019-03-19T22:24:23.583Z,68.83
2019-03-19T22:26:52.665Z,69.09
2019-03-19T22:29:21.684Z,69.13
2019-03-19T22:31:50.784Z,69.07
2019-03-19T22:34:19.863Z,69.10
2019-03-19T22:36:48.576Z,69.01
2019-03-19T22:39:18.140Z,68.90
2019-03-19T22:41:46.909Z,68.98
2019-03-19T22:44:16.043Z,69.07
2019-03-19T22:46:45.116Z,69.19
2019-03-19T22:49:13.882Z,68.87
2019-03-19T22:51:42.637Z,68.73
2019-03-19T22:54:11.461Z,69.14
2019-03-19T22:56:40.581Z,69.47
2019-03-19T22:59:09.365Z,69.55
2019-03-19T23:01:38.294Z,69.32
2019-03-19T23:04:09.432Z,69.57
2019-03-19T23:06:39.244Z,69.54
2019-03-19T23:09:08.415Z,69.73
2019-03-19T23:11:37.201Z,69.78
2019-03-19T23:14:06.307Z,69.94
2019-03-19T23:16:35.015Z,70.11
2019-03-19T23:19:03.752Z,70.00
2019-03-19T23:21:32.518Z,70.19
2019-03-19T23:24:01.207Z,70.20
2019-03-19T23:26:30.337Z,70.05
2019-03-19T23:28:59.029Z,69.96
2019-03-19T23:31:28.092Z,70.05
2019-03-19T23:33:57.102Z,69.95
2019-03-19T23:36:26.772Z,69.75
2019-03-19T23:38:55.469Z,70.05
2019-03-19T23:41:25.212Z,69.95
2019-03-19T23:43:54.156Z,70.01
2019-03-19T23:46:23.197Z,70.25
2019-03-19T23:48:51.889Z,69.91
2019-03-19T23:51:21.180Z,69.67
2019-03-19T23:53:50.173Z,69.64
2019-03-19T23:56:19.577Z,69.69
2019-03-19T23:58:48.430Z,69.60
